Time;durP1;ratioP1;P1;durP2;ratioP2;P2;SDS_P1;SDS_P2;PMS_P1;PMS_P2;Temp;Humidity;BMP_temperature;BMP_pressure;BME280_temperature;BME280_humidity;BME280_pressure;Samples;Min_cycle;Max_cycle;Signal;HPM_P1;HPM_P2
2021/11/05 00:00:26;;;;;;;37.88;18.33;;;6.90;99.90;;;;;;4963864;28;20042;-66
2021/11/05 00:02:57;;;;;;;36.47;17.90;;;6.90;99.90;;;;;;4980886;28;20035;-66
2021/11/05 00:05:26;;;;;;;39.60;18.42;;;6.90;99.90;;;;;;4980600;28;20031;-66
2021/11/05 00:07:54;;;;;;;33.83;18.38;;;6.90;99.90;;;;;;4980034;28;20111;-66
2021/11/05 00:10:22;;;;;;;29.50;16.15;;;6.80;99.90;;;;;;4979998;28;20023;-66
2021/11/05 00:12:51;;;;;;;34.60;17.88;;;6.80;99.90;;;;;;4980463;28;20026;-66
2021/11/05 00:15:18;;;;;;;32.78;17.35;;;6.80;99.90;;;;;;4979875;28;20022;-66
2021/11/05 00:17:46;;;;;;;34.95;17.35;;;6.80;99.90;;;;;;4980346;28;20399;-66
2021/11/05 00:20:14;;;;;;;33.15;17.67;;;6.80;99.90;;;;;;4979860;28;20095;-66
2021/11/05 00:22:41;;;;;;;35.05;18.17;;;6.80;99.90;;;;;;4962586;28;20034;-66
2021/11/05 00:25:09;;;;;;;38.33;18.05;;;6.80;99.90;;;;;;4979693;28;20021;-66
2021/11/05 00:27:38;;;;;;;36.58;17.95;;;6.80;99.90;;;;;;4962565;28;20046;-66
2021/11/05 00:30:08;;;;;;;36.95;18.15;;;6.80;99.90;;;;;;4980429;28;20440;-66
2021/11/05 00:32:36;;;;;;;35.70;18.80;;;6.80;99.90;;;;;;4980933;28;20031;-66
2021/11/05 00:35:05;;;;;;;40.95;18.95;;;6.80;99.90;;;;;;4980617;28;20110;-66
2021/11/05 00:37:32;;;;;;;38.03;18.95;;;6.80;99.90;;;;;;4982006;28;20034;-66
2021/11/05 00:40:00;;;;;;;31.58;17.58;;;6.80;99.90;;;;;;4980866;28;20301;-66
2021/11/05 00:42:27;;;;;;;36.53;16.75;;;6.80;99.90;;;;;;4980526;28;20045;-66
2021/11/05 00:44:55;;;;;;;36.75;17.33;;;6.80;99.90;;;;;;4979741;28;20026;-66
2021/11/05 00:47:23;;;;;;;34.72;18.08;;;6.80;99.90;;;;;;4980557;28;20046;-66
2021/11/05 00:49:50;;;;;;;34.83;18.55;;;6.80;99.90;;;;;;4979432;28;20023;-66
2021/11/05 00:52:17;;;;;;;42.55;19.60;;;6.80;99.90;;;;;;4979231;28;20109;-66
2021/11/05 00:54:44;;;;;;;36.70;16.60;;;6.80;99.90;;;;;;4979366;28;20301;-66
2021/11/05 00:57:12;;;;;;;42.50;20.25;;;6.80;99.90;;;;;;4979135;28;20030;-66
2021/11/05 00:59:40;;;;;;;38.20;18.50;;;6.80;99.90;;;;;;4979332;28;20030;-66
2021/11/05 01:02:09;;;;;;;43.05;20.15;;;6.80;99.90;;;;;;4978953;28;20478;-66
2021/11/05 01:04:37;;;;;;;39.97;19.65;;;6.80;99.90;;;;;;4979022;28;20038;-66
2021/11/05 01:07:05;;;;;;;37.63;18.90;;;6.80;99.90;;;;;;4978903;28;20383;-66
2021/11/05 01:09:33;;;;;;;37.45;18.80;;;6.80;99.90;;;;;;4979513;28;20023;-66
2021/11/05 01:12:00;;;;;;;44.83;18.60;;;6.80;99.90;;;;;;4962085;28;20037;-66
2021/11/05 01:14:27;;;;;;;39.38;18.42;;;6.80;99.90;;;;;;4979897;28;20054;-66
2021/11/05 01:16:58;;;;;;;37.63;19.00;;;6.80;99.90;;;;;;4979604;28;20055;-66
2021/11/05 01:19:27;;;;;;;44.60;18.80;;;6.80;99.90;;;;;;4979373;28;20031;-66
2021/11/05 01:21:54;;;;;;;39.25;18.13;;;6.80;99.90;;;;;;4979600;28;20301;-66
2021/11/05 01:24:22;;;;;;;39.03;18.90;;;6.80;99.90;;;;;;4962486;28;20094;-66
2021/11/05 01:26:49;;;;;;;37.70;18.25;;;6.80;99.90;;;;;;4979799;28;20023;-66
2021/11/05 01:29:16;;;;;;;33.38;18.08;;;6.80;99.90;;;;;;4979496;28;20105;-66
2021/11/05 01:31:44;;;;;;;36.22;19.55;;;6.80;99.90;;;;;;4962003;28;20042;-66
2021/11/05 01:34:11;;;;;;;43.17;20.73;;;6.80;99.90;;;;;;4961209;28;20034;-66
2021/11/05 01:36:38;;;;;;;37.45;18.90;;;6.80;99.90;;;;;;4978425;28;20027;-66
2021/11/05 01:39:07;;;;;;;37.85;19.10;;;6.80;99.90;;;;;;4978817;28;20380;-66
2021/11/05 01:41:41;;;;;;;43.90;19.70;;;6.80;99.90;;;;;;4978856;28;20019;-66
2021/11/05 01:44:09;;;;;;;43.47;21.02;;;6.80;99.90;;;;;;4978208;28;20042;-66
2021/11/05 01:46:41;;;;;;;46.55;22.33;;;6.80;99.90;;;;;;4978535;28;20034;-66
2021/11/05 01:49:10;;;;;;;45.88;21.33;;;6.80;99.90;;;;;;4978398;28;20331;-66
2021/11/05 01:51:38;;;;;;;43.03;18.85;;;6.80;99.90;;;;;;4978139;28;20027;-66
2021/11/05 01:54:12;;;;;;;44.05;21.08;;;6.80;99.90;;;;;;4978339;28;20015;-66
2021/11/05 01:56:41;;;;;;;44.05;21.27;;;6.80;99.90;;;;;;4979272;28;20019;-66
2021/11/05 01:59:24;;;;;;;44.25;20.95;;;6.80;99.90;;;;;;4979554;28;20033;-66
2021/11/05 02:01:52;;;;;;;45.78;21.90;;;6.80;99.90;;;;;;4978908;28;20082;-66
2021/11/05 02:04:20;;;;;;;48.00;21.63;;;6.80;99.90;;;;;;4961635;28;20033;-66
2021/11/05 02:06:49;;;;;;;47.83;20.42;;;6.90;99.90;;;;;;4978833;28;20030;-66
2021/11/05 02:09:21;;;;;;;51.30;20.98;;;6.80;99.90;;;;;;4978944;28;20026;-66
2021/11/05 02:11:50;;;;;;;43.40;19.10;;;6.80;99.90;;;;;;4979294;28;20106;-66
2021/11/05 02:14:21;;;;;;;43.15;20.33;;;6.80;99.90;;;;;;4961318;28;20387;-66
2021/11/05 02:16:54;;;;;;;40.65;19.58;;;6.80;99.90;;;;;;4978047;28;20054;-66
2021/11/05 02:19:24;;;;;;;43.70;20.92;;;6.80;99.90;;;;;;4977775;28;20099;-66
2021/11/05 02:21:53;;;;;;;46.22;20.38;;;6.80;99.90;;;;;;4977734;28;20081;-66
2021/11/05 02:24:22;;;;;;;44.38;20.65;;;6.80;99.90;;;;;;4977705;28;20018;-66
2021/11/05 02:26:50;;;;;;;45.00;19.23;;;6.80;99.90;;;;;;4977721;28;20106;-66
2021/11/05 02:29:18;;;;;;;40.88;20.10;;;6.80;99.90;;;;;;4977796;28;20494;-66
2021/11/05 02:31:46;;;;;;;40.53;18.75;;;6.80;99.90;;;;;;4977911;28;20082;-66
2021/11/05 02:34:13;;;;;;;53.25;20.90;;;6.80;99.90;;;;;;4977573;28;20026;-66
2021/11/05 02:36:41;;;;;;;40.35;18.10;;;6.80;99.90;;;;;;4977591;28;20395;-66
2021/11/05 02:39:09;;;;;;;39.70;18.58;;;6.80;99.90;;;;;;4978503;28;20039;-66
2021/11/05 02:41:44;;;;;;;45.10;19.70;;;6.80;99.90;;;;;;4978923;28;20073;-66
2021/11/05 02:44:13;;;;;;;39.42;18.45;;;6.80;99.90;;;;;;4978160;28;20444;-66
2021/11/05 02:46:42;;;;;;;39.42;19.08;;;6.80;99.90;;;;;;4961563;28;20428;-66
2021/11/05 02:49:13;;;;;;;41.08;17.02;;;6.80;99.90;;;;;;4978290;28;20058;-66
2021/11/05 02:51:43;;;;;;;37.85;18.30;;;6.80;99.90;;;;;;4978302;28;20380;-66
2021/11/05 02:54:10;;;;;;;39.08;17.15;;;6.80;99.90;;;;;;4978276;28;20078;-66
2021/11/05 02:56:38;;;;;;;38.13;17.63;;;6.80;99.90;;;;;;4978332;28;20023;-66
2021/11/05 02:59:06;;;;;;;39.75;17.48;;;6.80;99.90;;;;;;4977543;28;20030;-66
2021/11/05 03:01:36;;;;;;;45.25;18.60;;;6.80;99.90;;;;;;4960932;28;20023;-66
2021/11/05 03:04:10;;;;;;;41.22;18.00;;;6.80;99.90;;;;;;4977340;28;20023;-66
2021/11/05 03:06:40;;;;;;;44.00;18.42;;;6.80;99.90;;;;;;4977598;28;20331;-66
2021/11/05 03:09:10;;;;;;;40.75;15.95;;;6.80;99.90;;;;;;4961869;28;20027;-66
2021/11/05 03:11:38;;;;;;;37.30;15.15;;;6.80;99.90;;;;;;4963930;28;20027;-66
2021/11/05 03:14:06;;;;;;;33.05;15.43;;;6.80;99.90;;;;;;4981088;28;20019;-66
2021/11/05 03:16:34;;;;;;;36.95;15.70;;;6.80;99.90;;;;;;4981304;28;20027;-66
2021/11/05 03:19:03;;;;;;;38.85;16.88;;;6.80;99.90;;;;;;4981107;28;20401;-66
2021/11/05 03:21:30;;;;;;;36.75;16.52;;;6.80;99.90;;;;;;4981825;28;20023;-66
2021/11/05 03:23:57;;;;;;;42.10;16.80;;;6.80;99.90;;;;;;4982089;28;20059;-66
2021/11/05 03:26:25;;;;;;;36.33;16.27;;;6.80;99.90;;;;;;4981700;28;20071;-66
2021/11/05 03:28:53;;;;;;;38.92;17.70;;;6.80;99.90;;;;;;4981810;28;20027;-66
2021/11/05 03:31:20;;;;;;;37.17;17.65;;;6.80;99.90;;;;;;4965120;28;20423;-66
2021/11/05 03:33:48;;;;;;;37.92;16.58;;;6.80;99.90;;;;;;4964375;28;20042;-66
2021/11/05 03:36:16;;;;;;;42.67;17.40;;;6.80;99.90;;;;;;4982047;28;20422;-66
2021/11/05 03:38:43;;;;;;;42.53;17.42;;;6.80;99.90;;;;;;4981710;28;20031;-66
2021/11/05 03:41:11;;;;;;;40.22;17.75;;;6.80;99.90;;;;;;4980743;28;20033;-66
2021/11/05 03:43:38;;;;;;;44.20;19.92;;;6.80;99.90;;;;;;4980287;28;20133;-66
2021/11/05 03:46:06;;;;;;;47.42;19.13;;;6.80;99.90;;;;;;4947417;28;20447;-66
2021/11/05 03:48:41;;;;;;;34.25;14.07;;;6.70;99.90;;;;;;4980562;28;20027;-66
2021/11/05 03:51:10;;;;;;;42.88;18.60;;;6.70;99.90;;;;;;4963226;28;20027;-66
2021/11/05 03:53:37;;;;;;;46.28;18.65;;;6.70;99.90;;;;;;4980354;28;20081;-66
2021/11/05 03:56:05;;;;;;;40.25;16.98;;;6.70;99.90;;;;;;4980532;28;20431;-66
2021/11/05 03:58:34;;;;;;;39.47;17.67;;;6.70;99.90;;;;;;4980751;28;20054;-66
2021/11/05 04:01:01;;;;;;;43.22;16.27;;;6.70;99.90;;;;;;4980616;28;20030;-66
2021/11/05 04:10:13;;;;;;;41.90;16.42;;;6.70;99.90;;;;;;4980995;28;20110;-66
2021/11/05 04:12:41;;;;;;;50.35;18.63;;;6.70;99.90;;;;;;4980896;28;20089;-66
2021/11/05 04:15:09;;;;;;;46.85;18.58;;;6.70;99.90;;;;;;4981004;28;20029;-66
2021/11/05 04:17:38;;;;;;;35.85;14.75;;;6.70;99.90;;;;;;4981218;28;20015;-66
2021/11/05 04:20:06;;;;;;;38.90;16.73;;;6.70;99.90;;;;;;4980563;28;20094;-66
2021/11/05 04:22:34;;;;;;;30.80;12.60;;;6.70;99.90;;;;;;4980646;28;20050;-66
2021/11/05 04:25:01;;;;;;;36.20;16.80;;;6.70;99.90;;;;;;4979941;28;20305;-66
2021/11/05 04:27:29;;;;;;;35.80;15.98;;;6.70;99.90;;;;;;4979724;28;20023;-66
2021/11/05 04:29:56;;;;;;;39.08;17.10;;;6.70;99.90;;;;;;4980261;28;20443;-66
2021/11/05 04:32:23;;;;;;;42.55;16.13;;;6.60;99.90;;;;;;4979626;28;20375;-66
2021/11/05 04:34:51;;;;;;;41.50;16.92;;;6.60;99.90;;;;;;4946831;28;20367;-66
2021/11/05 04:37:19;;;;;;;38.83;16.30;;;6.60;99.90;;;;;;4979507;28;20027;-66
2021/11/05 04:39:46;;;;;;;41.88;16.92;;;6.70;99.90;;;;;;4962299;28;20058;-66
2021/11/05 04:42:14;;;;;;;50.08;17.67;;;6.60;99.90;;;;;;4979171;28;20344;-66
2021/11/05 04:44:41;;;;;;;30.83;12.43;;;6.70;99.90;;;;;;4963567;28;20058;-66
2021/11/05 04:47:08;;;;;;;40.17;15.25;;;6.70;99.90;;;;;;4980511;28;20046;-66
2021/11/05 04:49:36;;;;;;;38.20;15.82;;;6.70;99.90;;;;;;4980298;28;20023;-66
2021/11/05 04:52:05;;;;;;;43.20;17.75;;;6.70;99.90;;;;;;4980746;28;20421;-66
2021/11/05 04:54:32;;;;;;;40.67;16.42;;;6.70;99.90;;;;;;4980856;28;20031;-66
2021/11/05 04:57:00;;;;;;;38.20;16.30;;;6.70;99.90;;;;;;4980150;28;20026;-66
2021/11/05 04:59:27;;;;;;;44.92;15.23;;;6.70;99.90;;;;;;4980296;28;20081;-66
2021/11/05 05:01:55;;;;;;;35.22;15.30;;;6.70;99.90;;;;;;4980581;28;20014;-66
2021/11/05 05:04:22;;;;;;;46.35;16.63;;;6.70;99.90;;;;;;4979856;28;20102;-66
2021/11/05 05:06:49;;;;;;;38.08;16.98;;;6.70;99.90;;;;;;4978993;28;20026;-66
2021/11/05 05:09:17;;;;;;;36.83;13.45;;;6.70;99.90;;;;;;4979507;28;20023;-66
2021/11/05 05:11:46;;;;;;;34.47;14.15;;;6.70;99.90;;;;;;4961721;28;20022;-66
2021/11/05 05:14:14;;;;;;;36.80;16.13;;;6.70;99.90;;;;;;4979560;28;20023;-66
2021/11/05 05:16:43;;;;;;;39.05;16.85;;;6.70;99.90;;;;;;4978812;28;20050;-66
2021/11/05 05:19:10;;;;;;;41.40;14.63;;;6.70;99.90;;;;;;4978633;28;20026;-66
2021/11/05 05:21:38;;;;;;;39.95;15.18;;;6.70;99.90;;;;;;4961555;28;20434;-66
2021/11/05 05:24:05;;;;;;;38.65;16.00;;;6.70;99.90;;;;;;4961597;28;20038;-66
2021/11/05 05:26:33;;;;;;;37.10;16.38;;;6.70;99.90;;;;;;4961473;28;20352;-66
2021/11/05 05:29:00;;;;;;;40.78;16.95;;;6.70;99.90;;;;;;4962341;28;20327;-66
2021/11/05 05:31:28;;;;;;;39.80;15.35;;;6.70;99.90;;;;;;4979385;28;20077;-67
2021/11/05 05:33:56;;;;;;;32.97;14.15;;;6.70;99.90;;;;;;4979520;28;20027;-66
2021/11/05 05:36:23;;;;;;;38.53;16.30;;;6.70;99.90;;;;;;4979813;28;20027;-66
2021/11/05 05:38:51;;;;;;;37.88;15.77;;;6.70;99.90;;;;;;4979355;28;20387;-66
2021/11/05 05:41:18;;;;;;;42.90;17.65;;;6.70;99.90;;;;;;4979188;28;20411;-66
2021/11/05 05:43:45;;;;;;;38.40;15.55;;;6.70;99.90;;;;;;4979364;28;20101;-66
2021/11/05 05:46:13;;;;;;;35.22;15.10;;;6.70;99.90;;;;;;4979629;28;20022;-66
2021/11/05 05:48:40;;;;;;;41.05;16.92;;;6.70;99.90;;;;;;4961068;28;20022;-66
2021/11/05 05:51:07;;;;;;;41.92;16.85;;;6.70;99.90;;;;;;4978247;28;20030;-66
2021/11/05 05:53:35;;;;;;;39.72;16.80;;;6.70;99.90;;;;;;4961167;28;20037;-66
2021/11/05 05:56:03;;;;;;;41.53;15.98;;;6.70;99.90;;;;;;4961146;28;20093;-66
2021/11/05 05:58:30;;;;;;;45.92;18.45;;;6.70;99.90;;;;;;4978031;28;20031;-66
2021/11/05 06:00:58;;;;;;;40.45;17.23;;;6.70;99.90;;;;;;4977954;28;20085;-66
2021/11/05 06:03:25;;;;;;;44.30;17.38;;;6.70;99.90;;;;;;4978416;28;20023;-66
2021/11/05 06:05:53;;;;;;;39.22;16.80;;;6.70;99.90;;;;;;4978519;28;20022;-66
2021/11/05 06:08:21;;;;;;;41.67;16.95;;;6.80;99.90;;;;;;4960751;28;20053;-66
2021/11/05 06:10:50;;;;;;;42.50;17.00;;;6.80;99.90;;;;;;4979002;28;20170;-66
2021/11/05 06:13:17;;;;;;;43.55;15.15;;;6.80;99.90;;;;;;4978904;28;20082;-66
2021/11/05 06:15:45;;;;;;;45.45;18.38;;;6.70;99.90;;;;;;4979239;28;20415;-66
2021/11/05 06:18:13;;;;;;;44.38;17.90;;;6.80;99.90;;;;;;4978561;28;20093;-66
2021/11/05 06:20:40;;;;;;;42.50;17.63;;;6.70;99.90;;;;;;4979054;28;20030;-66
2021/11/05 06:23:08;;;;;;;41.72;15.77;;;6.70;99.90;;;;;;4979102;28;20068;-66
2021/11/05 06:25:35;;;;;;;43.20;18.50;;;6.70;99.90;;;;;;4978582;28;20022;-66
2021/11/05 06:28:03;;;;;;;44.15;16.50;;;6.80;99.90;;;;;;4978776;28;20023;-66
2021/11/05 06:30:31;;;;;;;41.63;15.45;;;6.70;99.90;;;;;;4978611;28;20054;-66
2021/11/05 06:33:00;;;;;;;42.95;17.20;;;6.80;99.90;;;;;;4960378;28;20027;-66
2021/11/05 06:35:28;;;;;;;46.85;17.92;;;6.80;99.90;;;;;;4978054;28;20027;-68
2021/11/05 06:37:57;;;;;;;41.42;15.60;;;6.80;99.90;;;;;;4977475;28;20035;-66
2021/11/05 06:40:24;;;;;;;45.03;17.00;;;6.80;99.90;;;;;;4977927;28;20027;-66
2021/11/05 06:42:51;;;;;;;39.67;16.92;;;6.80;99.90;;;;;;4977360;28;20457;-67
2021/11/05 06:45:20;;;;;;;44.22;18.50;;;6.80;99.90;;;;;;4964269;28;20027;-66
2021/11/05 06:47:48;;;;;;;46.95;18.25;;;6.80;99.90;;;;;;4981533;28;20054;-66
2021/11/05 06:50:16;;;;;;;36.70;14.77;;;6.80;99.90;;;;;;4964301;28;20031;-66
2021/11/05 06:52:44;;;;;;;41.03;16.35;;;6.80;99.90;;;;;;4981870;28;20023;-67
2021/11/05 06:55:11;;;;;;;42.75;16.35;;;6.80;99.90;;;;;;4982946;28;20023;-66
2021/11/05 06:57:39;;;;;;;40.08;14.40;;;6.80;99.90;;;;;;4982688;28;20404;-71
2021/11/05 07:00:10;;;;;;;39.20;16.20;;;6.80;99.90;;;;;;4982110;28;20031;-71
2021/11/05 07:02:41;;;;;;;41.72;16.90;;;6.80;99.90;;;;;;4982145;28;20026;-71
2021/11/05 07:05:11;;;;;;;42.13;15.68;;;6.80;99.90;;;;;;4982250;28;20019;-70
2021/11/05 07:07:38;;;;;;;35.80;14.55;;;6.80;99.90;;;;;;4982032;28;20055;-73
2021/11/05 07:10:07;;;;;;;38.13;16.05;;;6.80;99.90;;;;;;4981428;28;20033;-72
2021/11/05 07:12:36;;;;;;;42.10;15.18;;;6.80;99.90;;;;;;4964518;28;20097;-71
2021/11/05 07:15:04;;;;;;;38.72;13.80;;;6.80;99.90;;;;;;4981775;28;20069;-72
2021/11/05 07:17:32;;;;;;;30.63;12.15;;;6.80;99.90;;;;;;4981481;28;20031;-71
2021/11/05 07:19:59;;;;;;;33.95;13.07;;;6.80;99.90;;;;;;4980939;28;20031;-71
2021/11/05 07:22:27;;;;;;;38.90;15.10;;;6.80;99.90;;;;;;4963710;28;20029;-72
2021/11/05 07:24:55;;;;;;;42.97;15.75;;;6.80;99.90;;;;;;4963165;28;20019;-71
2021/11/05 07:27:22;;;;;;;31.35;12.13;;;6.80;99.90;;;;;;4963660;28;20023;-71
2021/11/05 07:29:50;;;;;;;30.30;12.55;;;6.80;99.90;;;;;;4980815;28;20398;-71
2021/11/05 07:32:18;;;;;;;30.17;12.63;;;6.80;99.90;;;;;;4980735;28;20033;-71
2021/11/05 07:34:48;;;;;;;35.03;13.32;;;6.80;99.90;;;;;;4979011;28;20442;-72
2021/11/05 07:37:18;;;;;;;33.38;13.57;;;6.80;99.90;;;;;;4982359;28;20319;-71
2021/11/05 07:39:46;;;;;;;33.83;12.45;;;6.80;99.90;;;;;;4981353;28;20030;-71
2021/11/05 07:42:15;;;;;;;34.88;14.10;;;6.80;99.90;;;;;;4981181;28;20498;-68
2021/11/05 07:44:42;;;;;;;40.08;13.95;;;6.90;99.90;;;;;;4964401;28;20424;-69
2021/11/05 07:47:10;;;;;;;33.50;13.07;;;6.90;99.90;;;;;;4981375;28;20023;-68
2021/11/05 07:49:37;;;;;;;30.23;12.52;;;6.90;99.90;;;;;;4964051;28;20098;-69
2021/11/05 07:52:06;;;;;;;28.33;12.45;;;6.90;99.90;;;;;;4981300;28;20030;-68
2021/11/05 07:54:34;;;;;;;31.40;12.13;;;6.90;99.90;;;;;;4980820;28;20121;-68
2021/11/05 07:57:01;;;;;;;30.27;13.50;;;6.90;99.90;;;;;;4980292;28;20019;-68
2021/11/05 07:59:28;;;;;;;28.08;12.00;;;6.90;99.90;;;;;;4962971;28;20336;-68
2021/11/05 08:01:56;;;;;;;29.88;12.15;;;7.00;99.90;;;;;;4980775;28;20025;-68
2021/11/05 08:04:24;;;;;;;37.33;12.60;;;7.00;99.90;;;;;;4962919;28;20416;-68
2021/11/05 08:06:52;;;;;;;31.73;12.32;;;7.10;99.90;;;;;;4980525;28;20062;-69
2021/11/05 08:09:20;;;;;;;33.80;12.30;;;7.10;99.90;;;;;;4980108;28;20029;-68
2021/11/05 08:11:48;;;;;;;33.03;12.43;;;7.10;99.90;;;;;;4962911;28;20070;-68
2021/11/05 08:14:15;;;;;;;28.00;12.20;;;7.20;99.90;;;;;;4980508;28;20077;-68
2021/11/05 08:16:43;;;;;;;34.08;14.60;;;7.20;99.90;;;;;;4979954;28;20023;-68
2021/11/05 08:19:11;;;;;;;25.55;11.25;;;7.30;99.90;;;;;;4980815;28;20028;-68
2021/11/05 08:21:39;;;;;;;29.73;11.75;;;7.30;99.90;;;;;;4963631;28;20023;-68
2021/11/05 08:24:07;;;;;;;26.15;11.23;;;7.30;99.90;;;;;;4980777;28;20023;-68
2021/11/05 08:26:34;;;;;;;26.55;12.27;;;7.40;99.90;;;;;;4980661;28;20022;-68
2021/11/05 08:29:03;;;;;;;30.48;11.60;;;7.40;99.90;;;;;;4980869;28;20425;-68
2021/11/05 08:31:30;;;;;;;25.20;9.63;;;7.40;99.90;;;;;;4963305;28;20054;-69
2021/11/05 08:33:59;;;;;;;25.60;11.88;;;7.40;99.90;;;;;;4980602;28;20043;-69
2021/11/05 08:36:27;;;;;;;27.13;10.95;;;7.40;99.90;;;;;;4980521;28;20050;-69
2021/11/05 08:38:55;;;;;;;29.40;11.05;;;7.40;99.90;;;;;;4979943;28;20402;-69
2021/11/05 08:41:23;;;;;;;26.95;11.68;;;7.40;99.90;;;;;;4979484;28;20031;-70
2021/11/05 08:43:56;;;;;;;24.33;11.63;;;7.40;99.90;;;;;;4979264;28;20046;-69
2021/11/05 08:46:28;;;;;;;23.70;10.23;;;7.50;99.90;;;;;;4962257;28;20034;-69
2021/11/05 08:49:02;;;;;;;24.92;11.30;;;7.50;99.90;;;;;;4979778;28;20162;-69
2021/11/05 08:51:31;;;;;;;20.23;10.00;;;7.60;99.90;;;;;;4979938;28;20027;-69
2021/11/05 08:54:02;;;;;;;20.92;9.57;;;7.60;99.90;;;;;;4979896;28;20023;-69
2021/11/05 08:56:30;;;;;;;21.30;8.88;;;7.60;99.90;;;;;;4979301;28;20106;-69
2021/11/05 08:58:58;;;;;;;23.20;9.82;;;7.60;99.90;;;;;;4962259;28;20118;-69
2021/11/05 09:01:25;;;;;;;22.13;10.05;;;7.60;99.90;;;;;;4979577;28;20023;-69
2021/11/05 09:03:53;;;;;;;25.67;9.52;;;7.60;99.90;;;;;;4980670;28;20023;-69
2021/11/05 09:06:21;;;;;;;25.73;10.95;;;7.70;99.90;;;;;;4979178;28;20359;-69
2021/11/05 09:08:51;;;;;;;22.42;9.27;;;7.70;99.90;;;;;;4980111;28;20022;-69
2021/11/05 09:11:18;;;;;;;22.08;10.48;;;7.80;99.90;;;;;;4980095;28;20027;-69
2021/11/05 09:13:46;;;;;;;22.63;8.73;;;7.90;99.90;;;;;;4980210;28;20033;-69
2021/11/05 09:16:14;;;;;;;21.30;7.90;;;7.90;99.90;;;;;;4979832;28;20042;-70
2021/11/05 09:18:41;;;;;;;22.25;9.13;;;7.90;99.90;;;;;;4980410;28;20035;-69
2021/11/05 09:21:09;;;;;;;22.83;10.35;;;8.00;99.90;;;;;;4979248;28;20432;-70
2021/11/05 09:23:37;;;;;;;20.58;9.23;;;8.00;99.90;;;;;;4978702;28;20057;-69
2021/11/05 09:26:04;;;;;;;16.52;7.93;;;8.00;99.90;;;;;;4978713;28;20503;-69
2021/11/05 09:28:32;;;;;;;21.80;10.43;;;8.00;99.90;;;;;;4979354;28;20026;-70
2021/11/05 09:30:59;;;;;;;18.30;8.10;;;8.00;99.90;;;;;;4979182;28;20315;-70
2021/11/05 09:33:27;;;;;;;18.33;7.43;;;8.00;99.90;;;;;;4978732;28;20030;-70
2021/11/05 09:35:55;;;;;;;17.92;8.23;;;8.00;99.90;;;;;;4961403;28;20117;-70
2021/11/05 09:38:22;;;;;;;20.58;8.75;;;8.00;99.90;;;;;;4979226;28;20153;-70
2021/11/05 09:40:51;;;;;;;19.70;7.60;;;8.00;99.90;;;;;;4978410;28;20051;-70
2021/11/05 09:43:21;;;;;;;19.05;8.60;;;8.00;99.90;;;;;;4978473;28;20058;-70
2021/11/05 09:45:48;;;;;;;16.85;7.40;;;8.00;99.90;;;;;;4979209;28;20023;-70
2021/11/05 09:48:15;;;;;;;17.25;8.00;;;8.00;99.90;;;;;;4979316;28;20050;-70
2021/11/05 09:50:44;;;;;;;14.20;5.97;;;8.00;99.90;;;;;;4979148;28;20023;-71
2021/11/05 09:53:11;;;;;;;14.95;6.57;;;8.00;99.90;;;;;;4978960;28;20030;-70
2021/11/05 09:55:45;;;;;;;15.85;6.82;;;8.00;99.90;;;;;;4979513;28;20030;-70
2021/11/05 09:58:13;;;;;;;20.67;8.48;;;8.00;99.90;;;;;;4979477;28;20420;-70
2021/11/05 10:00:41;;;;;;;19.40;8.93;;;8.00;99.90;;;;;;4978915;28;20050;-70
2021/11/05 10:03:08;;;;;;;19.13;8.40;;;8.00;99.90;;;;;;4979328;28;20047;-70
2021/11/05 10:05:36;;;;;;;17.15;8.07;;;7.90;99.90;;;;;;4978736;28;20082;-70
2021/11/05 10:08:04;;;;;;;19.85;7.60;;;8.00;99.90;;;;;;4978435;28;20015;-69
2021/11/05 10:10:34;;;;;;;19.27;8.95;;;8.00;99.90;;;;;;4978260;28;20415;-70
2021/11/05 10:13:06;;;;;;;23.05;8.73;;;8.10;99.90;;;;;;4977978;28;20034;-70
2021/11/05 10:15:42;;;;;;;22.17;8.38;;;8.10;99.90;;;;;;4978432;28;20026;-70
2021/11/05 10:18:26;;;;;;;18.90;8.32;;;8.10;99.90;;;;;;4960667;28;20090;-70
2021/11/05 10:21:12;;;;;;;13.00;6.25;;;8.10;99.90;;;;;;4977770;28;20027;-70
2021/11/05 10:23:42;;;;;;;17.30;7.05;;;8.10;99.90;;;;;;4978391;28;20015;-70
2021/11/05 10:26:22;;;;;;;15.48;6.00;;;8.10;99.90;;;;;;4977702;28;20308;-70
2021/11/05 10:28:49;;;;;;;16.30;7.47;;;8.20;99.90;;;;;;4978573;28;20027;-70
2021/11/05 10:31:18;;;;;;;17.38;6.90;;;8.30;99.90;;;;;;4961478;28;20061;-70
2021/11/05 10:33:48;;;;;;;14.60;6.35;;;8.30;99.90;;;;;;4978481;28;20110;-69
2021/11/05 10:36:18;;;;;;;16.85;7.47;;;8.40;99.90;;;;;;4978530;28;20101;-84
2021/11/05 10:38:58;;;;;;;17.35;6.65;;;8.40;99.90;;;;;;4961395;28;20038;-69
2021/11/05 10:41:28;;;;;;;13.30;6.18;;;8.40;99.90;;;;;;4978408;28;20343;-70
2021/11/05 10:43:58;;;;;;;17.95;7.28;;;8.40;99.90;;;;;;4978272;28;20074;-70
2021/11/05 10:46:34;;;;;;;14.57;6.45;;;8.40;99.90;;;;;;4978443;28;20046;-70
2021/11/05 10:49:09;;;;;;;17.40;6.40;;;8.40;99.90;;;;;;4977898;28;20019;-70
2021/11/05 10:51:36;;;;;;;18.23;7.40;;;8.40;99.90;;;;;;4977481;28;20031;-70
2021/11/05 10:54:04;;;;;;;16.38;7.10;;;8.30;99.90;;;;;;4977606;28;20047;-85
2021/11/05 10:56:32;;;;;;;19.30;7.47;;;8.30;99.90;;;;;;4977379;28;20030;-69
2021/11/05 10:59:08;;;;;;;15.70;8.52;;;8.30;99.90;;;;;;4977925;28;20110;-69
2021/11/05 11:01:46;;;;;;;20.25;7.53;;;8.40;99.90;;;;;;4977437;28;20031;-70
2021/11/05 11:04:14;;;;;;;14.93;7.25;;;8.30;99.90;;;;;;4978274;28;20034;-68
2021/11/05 11:06:45;;;;;;;18.90;7.70;;;8.30;99.90;;;;;;4977650;28;20073;-69
2021/11/05 11:09:19;;;;;;;18.45;7.80;;;8.30;99.90;;;;;;4978157;28;20054;-69
2021/11/05 11:11:49;;;;;;;19.80;8.23;;;8.30;99.90;;;;;;4978175;28;20050;-69
2021/11/05 11:14:19;;;;;;;22.25;8.48;;;8.20;99.90;;;;;;4978750;28;20015;-69
2021/11/05 11:17:01;;;;;;;19.73;8.13;;;8.20;99.90;;;;;;4978211;28;20499;-69
2021/11/05 11:19:30;;;;;;;14.60;7.35;;;8.20;99.90;;;;;;4978213;28;20035;-69
2021/11/05 11:22:06;;;;;;;18.80;8.13;;;8.20;99.90;;;;;;4978600;28;20057;-69
2021/11/05 11:24:38;;;;;;;23.15;7.28;;;8.20;99.90;;;;;;4978350;28;20023;-80
2021/11/05 11:27:07;;;;;;;16.35;8.20;;;8.20;99.90;;;;;;4960992;28;20390;-69
2021/11/05 11:29:35;;;;;;;12.93;6.03;;;8.20;99.90;;;;;;4979121;28;20019;-68
2021/11/05 11:32:04;;;;;;;18.95;8.05;;;8.30;99.90;;;;;;4981403;28;20028;-69
2021/11/05 11:34:32;;;;;;;17.92;7.32;;;8.30;99.90;;;;;;4963624;28;20102;-69
2021/11/05 11:37:01;;;;;;;14.55;7.35;;;8.30;99.90;;;;;;4980696;28;20019;-70
2021/11/05 11:39:31;;;;;;;16.83;7.30;;;8.40;99.90;;;;;;4963340;28;20331;-68
2021/11/05 11:42:07;;;;;;;16.23;6.97;;;8.50;99.90;;;;;;4980554;28;20304;-68
2021/11/05 11:44:37;;;;;;;16.98;6.03;;;8.60;99.90;;;;;;4980283;28;20054;-69
2021/11/05 11:47:10;;;;;;;14.00;6.43;;;8.70;99.90;;;;;;4980634;28;20077;-69
2021/11/05 11:49:41;;;;;;;17.50;6.72;;;8.90;99.90;;;;;;4980672;28;20363;-69
2021/11/05 11:52:30;;;;;;;13.10;6.20;;;9.10;99.90;;;;;;4963380;28;20027;-68
2021/11/05 11:55:19;;;;;;;12.57;5.85;;;9.20;99.90;;;;;;4981281;28;20031;-69
2021/11/05 11:57:47;;;;;;;13.02;6.70;;;9.20;99.90;;;;;;4981260;28;20018;-69
2021/11/05 12:00:18;;;;;;;15.30;6.05;;;9.30;99.90;;;;;;4981204;28;20030;-68
2021/11/05 12:02:45;;;;;;;11.45;5.63;;;9.30;99.90;;;;;;4963892;28;20384;-68
2021/11/05 12:05:24;;;;;;;13.95;5.57;;;9.30;99.90;;;;;;4981627;28;20045;-68
2021/11/05 12:08:14;;;;;;;12.13;5.57;;;9.30;99.90;;;;;;4981519;28;20019;-68
2021/11/05 12:10:45;;;;;;;12.90;6.22;;;9.30;99.90;;;;;;4981201;28;20019;-69
2021/11/05 12:13:34;;;;;;;13.93;5.70;;;9.30;99.90;;;;;;4981080;28;20027;-69
2021/11/05 12:16:15;;;;;;;11.32;5.43;;;9.30;99.90;;;;;;4980284;28;20320;-68
2021/11/05 12:19:03;;;;;;;14.02;6.35;;;9.20;99.90;;;;;;4980407;28;20086;-68
2021/11/05 12:21:44;;;;;;;11.73;5.32;;;9.20;99.90;;;;;;4980418;28;20107;-69
2021/11/05 12:24:24;;;;;;;12.10;5.20;;;9.20;99.90;;;;;;4979881;28;20069;-68
2021/11/05 12:27:04;;;;;;;9.57;4.65;;;9.20;99.90;;;;;;4980317;28;20029;-68
2021/11/05 12:29:34;;;;;;;13.00;4.63;;;9.20;99.90;;;;;;4980357;28;20144;-68
2021/11/05 12:32:22;;;;;;;10.95;4.80;;;9.10;99.90;;;;;;4962527;28;20023;-68
2021/11/05 12:35:05;;;;;;;12.98;4.90;;;9.10;99.90;;;;;;4980422;28;20023;-68
2021/11/05 12:37:45;;;;;;;13.45;5.25;;;9.30;99.90;;;;;;4963603;28;20446;-68
2021/11/05 12:40:22;;;;;;;11.13;5.03;;;9.30;99.90;;;;;;4980972;28;20427;-68
2021/11/05 12:42:50;;;;;;;;;;;9.40;99.90;;;;;;4980987;28;20347;-69
2021/11/05 12:45:20;;;;;;;11.98;5.35;;;9.50;99.90;;;;;;4980811;28;19964;-68
2021/11/05 12:47:59;;;;;;;13.02;5.57;;;9.50;99.90;;;;;;4980272;28;20105;-68
2021/11/05 12:50:33;;;;;;;11.50;5.15;;;9.60;99.90;;;;;;4981054;28;20058;-69
2021/11/05 12:53:10;;;;;;;9.48;4.43;;;9.70;99.90;;;;;;4980547;28;20073;-71
2021/11/05 12:55:40;;;;;;;8.85;4.45;;;9.70;99.90;;;;;;4962982;28;20323;-72
2021/11/05 12:58:12;;;;;;;12.02;5.68;;;9.70;99.90;;;;;;4979784;28;20023;-72